createdAt,value
2022-08-21T00:00:21.340Z,99555.47
2022-08-21T00:02:51.323Z,99555.22
2022-08-21T00:05:18.068Z,99558.75
2022-08-21T00:07:44.858Z,99551.25
2022-08-21T00:10:12.443Z,99560.56
2022-08-21T00:12:40.219Z,99563.06
2022-08-21T00:15:09.366Z,99573.06
2022-08-21T00:17:36.605Z,99570.38
2022-08-21T00:20:07.043Z,99574.97
2022-08-21T00:22:33.586Z,99571.91
2022-08-21T00:25:00.196Z,99567.44
2022-08-21T00:27:26.743Z,99556.59
2022-08-21T00:29:54.607Z,99553.34
2022-08-21T00:32:23.609Z,99558.19
2022-08-21T00:34:50.519Z,99554.22
2022-08-21T00:37:17.034Z,99555.16
2022-08-21T00:39:44.055Z,99550.34
2022-08-21T00:42:11.287Z,99549.88
2022-08-21T00:44:37.837Z,99544.47
2022-08-21T00:47:04.616Z,99536.25
2022-08-21T00:49:31.163Z,99538.69
2022-08-21T00:51:59.915Z,99538.22
2022-08-21T00:54:28.704Z,99531.53
2022-08-21T00:56:59.590Z,99538.59
2022-08-21T00:59:28.876Z,99536.81
2022-08-21T01:01:55.624Z,99536.81
2022-08-21T01:04:23.316Z,99532.59
2022-08-21T01:06:50.096Z,99532.94
2022-08-21T01:09:16.655Z,99534.47
2022-08-21T01:11:44.187Z,99525.78
2022-08-21T01:14:13.156Z,99522.34
2022-08-21T01:16:44.117Z,99519.09
2022-08-21T01:19:11.137Z,99520.13
2022-08-21T01:21:38.813Z,99520.03
2022-08-21T01:24:06.650Z,99529.06
2022-08-21T01:26:35.612Z,99526.34
2022-08-21T01:29:23.806Z,99528.03
2022-08-21T01:31:50.422Z,99528.63
2022-08-21T01:34:17.017Z,99532.13
2022-08-21T01:36:45.467Z,99527.44
2022-08-21T01:39:12.176Z,99523.06
2022-08-21T01:41:38.698Z,99517.09
2022-08-21T01:44:05.390Z,99516.72
2022-08-21T01:46:31.972Z,99508.72
2022-08-21T01:48:58.673Z,99505.78
2022-08-21T01:51:25.283Z,99502.00
2022-08-21T01:53:51.736Z,99497.47
2022-08-21T01:56:19.198Z,99500.88
2022-08-21T01:58:47.450Z,99501.75
2022-08-21T02:01:14.847Z,99487.03
2022-08-21T02:03:42.216Z,99486.22
2022-08-21T02:06:14.143Z,99486.91
2022-08-21T02:08:41.131Z,99487.63
2022-08-21T02:11:07.952Z,99497.25
2022-08-21T02:13:34.576Z,99493.72
2022-08-21T02:16:01.023Z,99486.19
2022-08-21T02:18:27.504Z,99481.13
2022-08-21T02:20:56.072Z,99482.78
2022-08-21T02:23:26.540Z,99482.66
2022-08-21T02:26:00.345Z,99478.31
2022-08-21T02:28:27.715Z,99469.84
2022-08-21T02:30:55.258Z,99469.34
2022-08-21T02:33:22.039Z,99467.25
2022-08-21T02:35:49.751Z,99471.38
2022-08-21T02:38:20.204Z,99469.72
2022-08-21T02:40:51.105Z,99474.28
2022-08-21T02:43:19.458Z,99473.00
2022-08-21T02:45:46.884Z,99470.44
2022-08-21T02:48:16.043Z,99467.72
2022-08-21T02:50:46.185Z,99466.53
2022-08-21T02:53:17.459Z,99471.34
2022-08-21T02:55:48.564Z,99456.16
2022-08-21T02:58:17.368Z,99458.66
2022-08-21T03:00:44.736Z,99456.44
2022-08-21T03:03:11.978Z,99447.34
2022-08-21T03:05:38.675Z,99450.06
2022-08-21T03:08:11.345Z,99451.84
2022-08-21T03:10:40.717Z,99445.59
2022-08-21T03:13:07.749Z,99448.72
2022-08-21T03:15:34.212Z,99449.78
2022-08-21T03:18:00.731Z,99453.56
2022-08-21T03:20:29.466Z,99446.50
2022-08-21T03:22:57.487Z,99443.78
2022-08-21T03:25:39.881Z,99454.50
2022-08-21T03:28:13.859Z,99452.38
2022-08-21T03:30:42.926Z,99460.94
2022-08-21T03:33:12.247Z,99457.84
2022-08-21T03:35:43.457Z,99453.13
2022-08-21T03:38:11.210Z,99447.78
2022-08-21T03:40:37.843Z,99449.00
2022-08-21T03:43:04.991Z,99451.63
2022-08-21T03:45:32.439Z,99447.44
2022-08-21T03:48:02.155Z,99451.31
2022-08-21T03:50:31.669Z,99447.09
2022-08-21T03:52:59.920Z,99459.53
2022-08-21T03:55:27.871Z,99466.91
2022-08-21T03:57:54.482Z,99470.19
2022-08-21T04:00:21.544Z,99460.81
2022-08-21T04:02:48.626Z,99460.50
2022-08-21T04:05:27.932Z,99466.63
2022-08-21T04:08:02.881Z,99465.25
2022-08-21T04:10:31.489Z,99468.56
2022-08-21T04:12:59.166Z,99472.31
2022-08-21T04:15:27.029Z,99465.63
2022-08-21T04:17:53.976Z,99472.19
2022-08-21T04:20:22.524Z,99459.75
2022-08-21T04:22:51.486Z,99462.09
2022-08-21T04:25:20.147Z,99465.50
2022-08-21T04:27:47.074Z,99461.19
2022-08-21T04:30:15.787Z,99461.19
2022-08-21T04:32:47.522Z,99460.59
2022-08-21T04:35:17.950Z,99460.50
2022-08-21T04:37:44.495Z,99468.03
2022-08-21T04:40:13.408Z,99456.16
2022-08-21T04:42:45.274Z,99451.72
2022-08-21T04:45:26.943Z,99445.50
2022-08-21T04:47:55.321Z,99453.72
2022-08-21T04:50:32.556Z,99454.03
2022-08-21T04:52:59.411Z,99464.38
2022-08-21T04:55:28.416Z,99460.97
2022-08-21T04:57:57.229Z,99451.91
2022-08-21T05:00:25.518Z,99457.44
2022-08-21T05:02:58.383Z,99456.03
2022-08-21T05:05:25.702Z,99460.00
2022-08-21T05:07:53.088Z,99470.81
2022-08-21T05:10:19.663Z,99469.03
2022-08-21T05:12:46.337Z,99470.47
2022-08-21T05:15:13.916Z,99471.69
2022-08-21T05:17:41.713Z,99461.63
2022-08-21T05:20:09.592Z,99465.34
2022-08-21T05:22:36.161Z,99470.72
2022-08-21T05:25:03.075Z,99470.97
2022-08-21T05:27:36.762Z,99475.72
2022-08-21T05:30:09.989Z,99472.13
2022-08-21T05:32:37.307Z,99473.41
2022-08-21T05:35:08.092Z,99469.16
2022-08-21T05:37:34.986Z,99470.69
2022-08-21T05:40:12.760Z,99460.44
2022-08-21T05:42:54.013Z,99468.06
2022-08-21T05:45:41.468Z,99470.59
2022-08-21T05:48:10.786Z,99474.22
2022-08-21T05:50:39.126Z,99473.06
2022-08-21T05:53:07.486Z,99482.47
2022-08-21T05:55:34.586Z,99481.88
2022-08-21T05:58:01.737Z,99480.03
2022-08-21T06:00:28.398Z,99491.19
2022-08-21T06:02:55.182Z,99491.38
2022-08-21T06:05:37.427Z,99486.03
2022-08-21T06:08:04.869Z,99480.44
2022-08-21T06:10:32.206Z,99484.59
2022-08-21T06:12:59.042Z,99490.28
2022-08-21T06:15:27.478Z,99492.41
2022-08-21T06:17:54.838Z,99496.47
2022-08-21T06:20:22.083Z,99493.25
2022-08-21T06:22:48.647Z,99505.44
2022-08-21T06:25:15.483Z,99503.75
2022-08-21T06:27:42.056Z,99511.28
2022-08-21T06:30:10.054Z,99501.13
2022-08-21T06:32:37.472Z,99505.47
2022-08-21T06:35:06.141Z,99504.94
2022-08-21T06:37:32.886Z,99510.09
2022-08-21T06:39:59.626Z,99516.03
2022-08-21T06:42:27.978Z,99530.94
2022-08-21T06:44:54.996Z,99541.69
2022-08-21T06:47:21.541Z,99542.72
2022-08-21T06:49:48.190Z,99553.97
2022-08-21T06:52:16.390Z,99558.41
2022-08-21T06:54:42.956Z,99565.28
2022-08-21T06:57:10.006Z,99559.50
2022-08-21T06:59:37.069Z,99562.13
2022-08-21T07:02:04.174Z,99558.56
2022-08-21T07:04:31.057Z,99565.44
2022-08-21T07:06:59.499Z,99559.97
2022-08-21T07:09:26.145Z,99571.88
2022-08-21T07:11:55.148Z,99573.28
2022-08-21T07:14:22.054Z,99575.50
2022-08-21T07:16:50.044Z,99574.00
2022-08-21T07:19:16.592Z,99572.50
2022-08-21T07:21:43.285Z,99569.69
2022-08-21T07:24:12.903Z,99585.31
2022-08-21T07:26:39.755Z,99578.56
2022-08-21T07:29:06.560Z,99575.31
2022-08-21T07:31:33.337Z,99582.31
2022-08-21T07:33:59.967Z,99573.81
2022-08-21T07:36:26.724Z,99583.31
2022-08-21T07:38:53.509Z,99566.63
2022-08-21T07:41:23.132Z,99567.97
2022-08-21T07:43:52.703Z,99564.09
2022-08-21T07:46:19.821Z,99563.03
2022-08-21T07:48:46.442Z,99551.28
2022-08-21T07:51:15.367Z,99551.63
2022-08-21T07:53:42.124Z,99538.91
2022-08-21T07:56:09.653Z,99541.31
2022-08-21T07:58:36.261Z,99540.41
2022-08-21T08:01:02.898Z,99539.72
2022-08-21T08:03:29.640Z,99520.16
2022-08-21T08:05:59.453Z,99514.03
2022-08-21T08:08:27.320Z,99510.97
2022-08-21T08:10:54.867Z,99498.06
2022-08-21T08:13:21.632Z,99496.19
2022-08-21T08:15:48.300Z,99490.84
2022-08-21T08:18:14.879Z,99487.38
2022-08-21T08:20:42.208Z,99486.63
2022-08-21T08:23:12.104Z,99474.13
2022-08-21T08:25:38.855Z,99477.47
2022-08-21T08:28:16.506Z,99482.91
2022-08-21T08:30:44.950Z,99480.97
2022-08-21T08:33:11.625Z,99485.75
2022-08-21T08:35:39.026Z,99487.50
2022-08-21T08:38:06.755Z,99484.16
2022-08-21T08:40:54.831Z,99483.44
2022-08-21T08:43:21.503Z,99483.22
2022-08-21T08:45:51.498Z,99478.31
2022-08-21T08:48:32.946Z,99477.78
2022-08-21T08:51:01.005Z,99469.47
2022-08-21T08:53:36.479Z,99473.25
2022-08-21T08:56:04.959Z,99470.84
2022-08-21T08:58:35.278Z,99466.41
2022-08-21T09:01:02.841Z,99471.53
2022-08-21T09:03:29.692Z,99479.09
2022-08-21T09:06:19.952Z,99473.03
2022-08-21T09:08:55.470Z,99477.97
2022-08-21T09:11:27.971Z,99485.31
2022-08-21T09:14:09.357Z,99474.94
2022-08-21T09:17:06.010Z,99472.22
2022-08-21T09:19:44.714Z,99464.88
2022-08-21T09:22:40.544Z,99477.59
2022-08-21T09:25:29.388Z,99464.63
2022-08-21T09:27:55.969Z,99467.63
2022-08-21T09:30:28.927Z,99460.88
2022-08-21T09:32:59.070Z,99463.38
2022-08-21T09:35:26.906Z,99452.38
2022-08-21T09:38:03.997Z,99465.03
2022-08-21T09:40:36.269Z,99460.16
2022-08-21T09:43:13.609Z,99459.78
2022-08-21T09:45:42.861Z,99459.00
2022-08-21T09:48:15.063Z,99455.81
2022-08-21T09:50:43.353Z,99450.22
2022-08-21T09:53:19.106Z,99453.75
2022-08-21T09:56:09.687Z,99458.78
2022-08-21T09:58:38.328Z,99456.19
2022-08-21T10:01:07.154Z,99449.03
2022-08-21T10:03:33.894Z,99452.75
2022-08-21T10:06:09.147Z,99439.31
2022-08-21T10:08:40.921Z,99442.59
2022-08-21T10:11:11.017Z,99436.22
2022-08-21T10:14:01.558Z,99436.03
2022-08-21T10:16:48.015Z,99435.53
2022-08-21T10:19:17.514Z,99440.03
2022-08-21T10:21:59.867Z,99446.09
2022-08-21T10:24:33.712Z,99439.03
2022-08-21T10:27:24.137Z,99433.06
2022-08-21T10:29:58.008Z,99436.91
2022-08-21T10:32:34.673Z,99434.16
2022-08-21T10:35:09.664Z,99438.50
2022-08-21T10:37:44.903Z,99430.97
2022-08-21T10:40:26.627Z,99437.09
2022-08-21T10:43:36.318Z,99438.25
2022-08-21T10:46:12.227Z,99441.28
2022-08-21T10:48:44.858Z,99441.72
2022-08-21T10:51:29.458Z,99441.72
2022-08-21T10:54:01.185Z,99443.78
2022-08-21T10:56:33.016Z,99431.97
2022-08-21T10:59:40.675Z,99439.22
2022-08-21T11:02:19.385Z,99440.03
2022-08-21T11:05:12.476Z,99428.94
2022-08-21T11:07:47.245Z,99427.06
2022-08-21T11:10:59.338Z,99427.56
2022-08-21T11:13:45.513Z,99424.16
2022-08-21T11:16:33.578Z,99424.75
2022-08-21T11:19:09.115Z,99414.78
2022-08-21T11:21:40.846Z,99422.28
2022-08-21T11:24:32.476Z,99416.25
2022-08-21T11:27:16.169Z,99414.66
2022-08-21T11:29:45.360Z,99413.41
2022-08-21T11:33:03.317Z,99410.22
2022-08-21T11:35:49.532Z,99409.50
2022-08-21T11:38:35.738Z,99415.88
2022-08-21T11:41:24.242Z,99421.47
2022-08-21T11:43:57.244Z,99425.16
2022-08-21T11:46:32.213Z,99423.50
2022-08-21T11:49:25.473Z,99420.13
2022-08-21T11:51:59.036Z,99412.38
2022-08-21T11:54:46.911Z,99416.78
2022-08-21T11:57:21.841Z,99408.31
2022-08-21T12:00:12.655Z,99407.72
2022-08-21T12:02:44.481Z,99416.66
2022-08-21T12:05:22.769Z,99416.00
2022-08-21T12:07:49.291Z,99422.00
2022-08-21T12:10:21.975Z,99421.53
2022-08-21T12:12:49.289Z,99415.00
2022-08-21T12:15:21.876Z,99410.53
2022-08-21T12:18:06.670Z,99400.19
2022-08-21T12:20:38.417Z,99402.34
2022-08-21T12:23:17.180Z,99403.53
2022-08-21T12:26:02.798Z,99402.50
2022-08-21T12:28:31.205Z,99400.19
2022-08-21T12:30:59.006Z,99394.38
2022-08-21T12:33:32.078Z,99404.97
2022-08-21T12:36:17.280Z,99396.19
2022-08-21T12:38:58.887Z,99403.09
2022-08-21T12:41:34.310Z,99401.97
2022-08-21T12:44:05.607Z,99402.88
2022-08-21T12:46:46.773Z,99412.81
2022-08-21T12:49:16.775Z,99403.38
2022-08-21T12:52:17.825Z,99408.19
2022-08-21T12:54:45.541Z,99410.44
2022-08-21T12:57:24.305Z,99408.75
2022-08-21T12:59:59.873Z,99412.63
2022-08-21T13:02:36.120Z,99414.31
2022-08-21T13:05:07.053Z,99411.19
2022-08-21T13:07:36.217Z,99405.84
2022-08-21T13:10:06.999Z,99409.00
2022-08-21T13:12:34.279Z,99405.91
2022-08-21T13:15:04.297Z,99401.78
2022-08-21T13:17:38.647Z,99406.72
2022-08-21T13:20:23.657Z,99401.31
2022-08-21T13:22:53.257Z,99401.78
2022-08-21T13:25:22.282Z,99396.38
2022-08-21T13:28:10.235Z,99400.16
2022-08-21T13:30:40.779Z,99399.97
2022-08-21T13:33:12.875Z,99391.91
2022-08-21T13:35:53.717Z,99391.34
2022-08-21T13:38:21.871Z,99397.84
2022-08-21T13:40:58.183Z,99400.38
2022-08-21T13:43:34.251Z,99403.53
2022-08-21T13:46:01.652Z,99392.53
2022-08-21T13:48:31.246Z,99394.78
2022-08-21T13:50:59.242Z,99390.66
2022-08-21T13:53:36.276Z,99394.44
2022-08-21T13:56:05.644Z,99397.00
2022-08-21T13:58:43.590Z,99400.50
2022-08-21T14:01:20.824Z,99397.09
2022-08-21T14:03:49.926Z,99390.81
2022-08-21T14:06:24.209Z,99389.16
2022-08-21T14:08:54.239Z,99397.75
2022-08-21T14:11:21.689Z,99401.88
2022-08-21T14:13:58.613Z,99399.63
2022-08-21T14:16:28.563Z,99397.66
2022-08-21T14:19:32.414Z,99404.44
2022-08-21T14:21:59.044Z,99401.81
2022-08-21T14:24:28.316Z,99402.59
2022-08-21T14:27:03.066Z,99407.34
2022-08-21T14:29:38.504Z,99409.66
2022-08-21T14:32:26.009Z,99399.09
2022-08-21T14:34:54.883Z,99402.25
2022-08-21T14:37:22.428Z,99414.31
2022-08-21T14:39:49.355Z,99410.66
2022-08-21T14:42:16.125Z,99407.59
2022-08-21T14:44:42.711Z,99402.72
2022-08-21T14:47:10.342Z,99402.09
2022-08-21T14:49:37.079Z,99398.66
2022-08-21T14:52:03.941Z,99401.00
2022-08-21T14:54:32.517Z,99398.88
2022-08-21T14:57:10.860Z,99389.66
2022-08-21T14:59:38.630Z,99392.03
2022-08-21T15:02:06.386Z,99390.03
2022-08-21T15:04:34.017Z,99389.44
2022-08-21T15:07:00.720Z,99384.13
2022-08-21T15:09:27.505Z,99387.78
2022-08-21T15:11:58.988Z,99382.72
2022-08-21T15:14:27.839Z,99382.06
2022-08-21T15:16:54.524Z,99383.19
2022-08-21T15:19:21.351Z,99398.28
2022-08-21T15:21:48.355Z,99390.13
2022-08-21T15:24:15.111Z,99388.94
2022-08-21T15:26:41.849Z,99375.34
2022-08-21T15:29:09.214Z,99390.94
2022-08-21T15:31:37.621Z,99384.38
2022-08-21T15:34:04.258Z,99389.84
2022-08-21T15:36:30.788Z,99396.97
2022-08-21T15:38:59.169Z,99378.06
2022-08-21T15:41:25.891Z,99387.88
2022-08-21T15:43:54.044Z,99390.34
2022-08-21T15:46:21.345Z,99379.75
2022-08-21T15:48:48.246Z,99387.50
2022-08-21T15:51:16.749Z,99388.28
2022-08-21T15:53:43.604Z,99388.94
2022-08-21T15:56:19.107Z,99394.16
2022-08-21T15:58:45.747Z,99393.91
2022-08-21T16:01:12.402Z,99397.56
2022-08-21T16:03:39.647Z,99396.50
2022-08-21T16:06:06.351Z,99397.63
2022-08-21T16:08:33.126Z,99401.19
2022-08-21T16:11:00.907Z,99407.47
2022-08-21T16:13:30.396Z,99409.91
2022-08-21T16:15:57.683Z,99405.00
2022-08-21T16:18:24.416Z,99413.16
2022-08-21T16:20:51.147Z,99404.44
2022-08-21T16:23:17.812Z,99411.00
2022-08-21T16:25:44.893Z,99413.72
2022-08-21T16:28:14.743Z,99418.13
2022-08-21T16:30:42.091Z,99405.03
2022-08-21T16:33:14.368Z,99412.13
2022-08-21T16:35:41.498Z,99414.00
2022-08-21T16:38:08.301Z,99413.16
2022-08-21T16:40:36.092Z,99416.97
2022-08-21T16:43:02.882Z,99408.22
2022-08-21T16:45:33.036Z,99421.00
2022-08-21T16:48:00.340Z,99420.44
2022-08-21T16:50:26.865Z,99428.63
2022-08-21T16:52:54.346Z,99426.75
2022-08-21T16:55:20.875Z,99427.31
2022-08-21T16:57:47.466Z,99433.50
2022-08-21T17:00:14.622Z,99431.28
2022-08-21T17:02:45.688Z,99429.34
2022-08-21T17:05:14.162Z,99433.97
2022-08-21T17:07:41.636Z,99435.31
2022-08-21T17:10:09.845Z,99439.66
2022-08-21T17:12:36.596Z,99444.47
2022-08-21T17:15:09.846Z,99440.34
2022-08-21T17:17:36.646Z,99435.94
2022-08-21T17:20:04.497Z,99436.50
2022-08-21T17:22:31.447Z,99440.25
2022-08-21T17:25:01.858Z,99427.16
2022-08-21T17:27:29.133Z,99434.78
2022-08-21T17:29:57.379Z,99439.31
2022-08-21T17:32:24.584Z,99426.31
2022-08-21T17:34:52.078Z,99436.00
2022-08-21T17:37:19.022Z,99435.19
2022-08-21T17:39:46.029Z,99448.59
2022-08-21T17:42:13.830Z,99439.56
2022-08-21T17:44:45.462Z,99443.31
2022-08-21T17:47:13.584Z,99440.75
2022-08-21T17:49:40.771Z,99436.66
2022-08-21T17:52:08.023Z,99442.22
2022-08-21T17:54:36.514Z,99437.22
2022-08-21T17:57:03.999Z,99441.16
2022-08-21T17:59:30.623Z,99446.44
2022-08-21T18:02:01.475Z,99454.50
2022-08-21T18:04:32.621Z,99449.44
2022-08-21T18:06:59.229Z,99449.34
2022-08-21T18:09:29.034Z,99454.25
2022-08-21T18:11:59.623Z,99459.88
2022-08-21T18:14:29.606Z,99459.53
2022-08-21T18:16:57.464Z,99460.81
2022-08-21T18:19:26.157Z,99462.56
2022-08-21T18:21:58.173Z,99471.63
2022-08-21T18:24:27.541Z,99467.84
2022-08-21T18:26:54.631Z,99471.09
2022-08-21T18:29:22.602Z,99470.81
2022-08-21T18:31:49.571Z,99478.38
2022-08-21T18:34:35.062Z,99476.38
2022-08-21T18:37:02.518Z,99468.50
2022-08-21T18:39:38.054Z,99476.06
2022-08-21T18:42:09.632Z,99475.44
2022-08-21T18:44:36.376Z,99475.38
2022-08-21T18:47:08.067Z,99478.56
2022-08-21T18:49:34.845Z,99479.06
2022-08-21T18:52:01.420Z,99474.63
2022-08-21T18:54:30.019Z,99472.34
2022-08-21T18:56:57.428Z,99477.91
2022-08-21T18:59:26.856Z,99480.22
2022-08-21T19:01:53.521Z,99478.31
2022-08-21T19:04:42.948Z,99485.63
2022-08-21T19:07:06.927Z,99485.22
2022-08-21T19:09:33.688Z,99485.47
2022-08-21T19:12:00.418Z,99492.56
2022-08-21T19:14:28.466Z,99491.16
2022-08-21T19:16:55.531Z,99492.22
2022-08-21T19:19:22.181Z,99487.94
2022-08-21T19:21:49.495Z,99494.03
2022-08-21T19:24:17.875Z,99492.66
2022-08-21T19:26:45.118Z,99490.97
2022-08-21T19:29:12.578Z,99482.94
2022-08-21T19:31:44.155Z,99486.66
2022-08-21T19:34:17.206Z,99487.38
2022-08-21T19:36:43.868Z,99483.00
2022-08-21T19:39:11.250Z,99495.16
2022-08-21T19:41:42.427Z,99490.31
2022-08-21T19:44:13.592Z,99488.59
2022-08-21T19:46:43.491Z,99492.22
2022-08-21T19:49:13.547Z,99492.88
2022-08-21T19:51:40.672Z,99493.63
2022-08-21T19:54:12.273Z,99502.25
2022-08-21T19:56:38.784Z,99493.53
2022-08-21T19:59:09.319Z,99501.91
2022-08-21T20:01:36.752Z,99501.09
2022-08-21T20:04:10.744Z,99494.59
2022-08-21T20:06:46.149Z,99500.00
2022-08-21T20:09:14.502Z,99495.59
2022-08-21T20:11:52.668Z,99501.44
2022-08-21T20:14:22.883Z,99493.72
2022-08-21T20:16:52.627Z,99499.06
2022-08-21T20:19:20.322Z,99497.22
2022-08-21T20:21:46.940Z,99497.22
2022-08-21T20:24:15.406Z,99493.44
2022-08-21T20:26:48.714Z,99493.94
2022-08-21T20:29:16.684Z,99501.81
2022-08-21T20:31:50.754Z,99493.94
2022-08-21T20:34:17.318Z,99496.88
2022-08-21T20:36:44.688Z,99505.72
2022-08-21T20:39:14.535Z,99495.72
2022-08-21T20:41:41.446Z,99496.59
2022-08-21T20:44:12.654Z,99500.13
2022-08-21T20:46:39.815Z,99501.06
2022-08-21T20:49:09.179Z,99500.25
2022-08-21T20:51:43.167Z,99494.97
2022-08-21T20:54:51.161Z,99495.81
2022-08-21T20:57:30.654Z,99499.81
2022-08-21T21:00:01.704Z,99499.47
2022-08-21T21:02:57.856Z,99501.38
2022-08-21T21:05:38.931Z,99503.00
2022-08-21T21:08:16.266Z,99498.66
2022-08-21T21:10:59.982Z,99497.50
2022-08-21T21:13:30.959Z,99503.00
2022-08-21T21:19:06.999Z,99504.44
2022-08-21T21:24:51.538Z,99494.69
2022-08-21T21:27:49.151Z,99494.31
2022-08-21T21:30:23.530Z,99494.34
2022-08-21T21:32:51.053Z,99501.53
2022-08-21T21:35:32.321Z,99503.88
2022-08-21T21:38:03.122Z,99506.13
2022-08-21T21:40:54.242Z,99494.03
2022-08-21T21:44:12.713Z,99503.44
2022-08-21T21:47:01.796Z,99494.28
2022-08-21T21:49:39.677Z,99493.69
2022-08-21T21:52:27.696Z,99494.59
2022-08-21T21:54:59.828Z,99493.31
2022-08-21T21:57:55.106Z,99494.16
2022-08-21T22:00:27.116Z,99489.34
2022-08-21T22:03:19.401Z,99495.19
2022-08-21T22:05:52.137Z,99489.56
2022-08-21T22:08:30.199Z,99499.31
2022-08-21T22:11:08.862Z,99499.19
2022-08-21T22:13:58.335Z,99492.56
2022-08-21T22:16:25.048Z,99495.66
2022-08-21T22:18:57.132Z,99496.16
2022-08-21T22:21:36.837Z,99492.94
2022-08-21T22:24:13.076Z,99498.81
2022-08-21T22:26:44.209Z,99494.78
2022-08-21T22:29:16.677Z,99494.41
2022-08-21T22:31:46.716Z,99494.19
2022-08-21T22:34:21.765Z,99488.53
2022-08-21T22:36:59.507Z,99487.00
2022-08-21T22:39:48.038Z,99487.00
2022-08-21T22:42:25.195Z,99487.00
2022-08-21T22:44:57.113Z,99487.34
2022-08-21T22:47:45.028Z,99489.47
2022-08-21T22:50:25.697Z,99488.88
2022-08-21T22:52:54.261Z,99490.50
2022-08-21T22:55:37.178Z,99488.50
2022-08-21T22:58:17.768Z,99491.44
2022-08-21T23:01:06.425Z,99489.78
2022-08-21T23:03:52.312Z,99495.66
2022-08-21T23:06:29.987Z,99493.97
2022-08-21T23:09:00.389Z,99490.13
2022-08-21T23:11:42.703Z,99494.91
2022-08-21T23:14:14.252Z,99500.41
2022-08-21T23:16:56.827Z,99503.44
2022-08-21T23:19:38.432Z,99501.88
2022-08-21T23:22:28.759Z,99503.66
2022-08-21T23:25:35.356Z,99506.09
2022-08-21T23:28:21.938Z,99503.81
2022-08-21T23:31:10.651Z,99504.94
2022-08-21T23:33:53.904Z,99503.16
2022-08-21T23:36:51.213Z,99506.69
2022-08-21T23:39:42.077Z,99503.00
2022-08-21T23:42:26.987Z,99509.38
2022-08-21T23:45:22.793Z,99515.13
2022-08-21T23:48:21.498Z,99511.06
2022-08-21T23:50:55.842Z,99513.38
2022-08-21T23:53:38.863Z,99511.56
2022-08-21T23:56:26.661Z,99508.25
2022-08-21T23:58:59.860Z,99515.69
